Time;durP1;ratioP1;P1;durP2;ratioP2;P2;SDS_P1;SDS_P2;PMS_P1;PMS_P2;Temp;Humidity;BMP_temperature;BMP_pressure;BME280_temperature;BME280_humidity;BME280_pressure;Samples;Min_cycle;Max_cycle;Signal;HPM_P1;HPM_P2
2023/10/17 00:02:44;;;;;;;2.78;1.75;;;;;;;6.23;100.00;150237.09;10547186;28;20040;-70
2023/10/17 00:07:46;;;;;;;2.17;1.33;;;;;;;6.29;100.00;150252.56;10545559;28;20353;-70
2023/10/17 00:12:51;;;;;;;1.52;1.17;;;;;;;6.19;100.00;150225.53;10549561;28;20462;-70
2023/10/17 00:18:00;;;;;;;1.88;1.67;;;;;;;5.88;100.00;150147.00;10545498;28;20048;-70
2023/10/17 00:23:43;;;;;;;2.20;1.50;;;;;;;6.02;100.00;150184.38;10546621;28;20463;-70
2023/10/17 00:28:51;;;;;;;1.88;1.50;;;;;;;6.04;100.00;150189.50;10543575;28;20113;-71
2023/10/17 00:33:57;;;;;;;2.55;1.38;;;;;;;6.12;100.00;150207.53;10545569;28;20040;-70
2023/10/17 00:39:11;;;;;;;2.75;1.55;;;;;;;5.96;100.00;150168.91;10543254;28;20044;-69
2023/10/17 00:44:14;;;;;;;3.78;1.40;;;;;;;5.76;100.00;150118.72;10546099;28;20043;-70
2023/10/17 00:49:16;;;;;;;2.63;1.30;;;;;;;5.44;100.00;150036.38;10545383;28;20466;-69
2023/10/17 00:54:20;;;;;;;3.90;1.52;;;;;;;5.13;100.00;149959.22;10543644;28;20094;-69
2023/10/17 00:59:29;;;;;;;2.20;1.50;;;;;;;5.24;100.00;149987.53;10544790;28;20051;-70
2023/10/17 01:04:32;;;;;;;1.58;1.48;;;;;;;5.49;100.00;150050.56;10542832;28;20047;-69
2023/10/17 01:09:38;;;;;;;2.35;1.60;;;;;;;5.57;100.00;150069.81;10542624;28;20187;-68
2023/10/17 01:14:40;;;;;;;2.17;1.33;;;;;;;5.32;100.00;150006.81;10544205;28;20093;-68
2023/10/17 01:19:42;;;;;;;1.77;1.60;;;;;;;5.22;100.00;149982.41;10543327;28;20033;-68
2023/10/17 01:24:44;;;;;;;2.45;1.58;;;;;;;5.14;100.00;149960.53;10525329;28;20445;-68
2023/10/17 01:29:47;;;;;;;2.13;1.42;;;;;;;4.97;100.00;149919.38;10542897;28;20032;-68
2023/10/17 01:34:49;;;;;;;1.30;1.17;;;;;;;4.82;100.00;149880.78;10541137;28;20054;-68
2023/10/17 01:39:50;;;;;;;3.25;1.50;;;;;;;5.05;100.00;149939.97;10543206;28;20422;-68
2023/10/17 01:44:53;;;;;;;2.00;1.50;;;;;;;4.79;100.00;149873.13;10541380;28;20051;-67
2023/10/17 01:49:57;;;;;;;2.13;1.60;;;;;;;4.59;100.00;149821.69;10539965;28;20421;-68
2023/10/17 01:54:59;;;;;;;2.13;1.33;;;;;;;4.61;100.00;149828.13;10540846;28;20507;-68
2023/10/17 02:00:02;;;;;;;1.50;1.40;;;;;;;4.67;100.00;149843.53;10540880;28;20047;-68
2023/10/17 02:05:12;;;;;;;2.13;1.40;;;;;;;5.07;100.00;149945.09;10541593;28;20044;-68
2023/10/17 02:10:18;;;;;;;4.18;1.55;;;;;;;4.75;100.00;149862.84;10539593;28;20086;-68
2023/10/17 02:15:20;;;;;;;2.13;1.63;;;;;;;4.65;100.00;149837.09;10539203;28;20116;-68
2023/10/17 02:25:35;;;;;;;3.00;1.70;;;;;;;4.73;100.00;149858.94;10541461;28;20071;-68
2023/10/17 02:30:37;;;;;;;2.90;1.40;;;;;;;4.59;100.00;149821.69;10539343;28;20445;-68
2023/10/17 02:35:42;;;;;;;1.95;1.45;;;;;;;4.73;100.00;149858.94;10540576;28;20040;-68
2023/10/17 02:40:51;;;;;;;2.50;1.40;;;;;;;4.40;100.00;149775.44;10539869;28;20071;-68
2023/10/17 02:45:53;;;;;;;2.45;1.50;;;;;;;4.22;100.00;149730.47;10541998;28;20040;-68
2023/10/17 02:50:58;;;;;;;1.60;1.35;;;;;;;4.05;100.00;149688.06;10539832;28;20052;-68
2023/10/17 02:56:18;;;;;;;2.28;1.80;;;;;;;4.04;100.00;149684.22;10541345;28;20048;-68
2023/10/17 03:01:22;;;;;;;1.65;1.55;;;;;;;3.96;100.00;149664.97;10540219;28;20050;-68
2023/10/17 03:06:25;;;;;;;2.38;1.42;;;;;;;3.99;100.00;149671.41;10548974;28;20140;-68
2023/10/17 03:11:35;;;;;;;1.45;1.27;;;;;;;4.11;100.00;149702.19;10547523;28;20492;-68
2023/10/17 03:16:40;;;;;;;2.00;1.50;;;;;;;4.13;100.00;149707.34;10545849;28;20043;-68
2023/10/17 03:21:43;;;;;;;2.72;1.60;;;;;;;4.07;100.00;149691.91;10546098;28;20040;-68
2023/10/17 03:26:55;;;;;;;2.90;1.30;;;;;;;4.01;100.00;149677.78;10546433;28;20082;-68
2023/10/17 03:31:58;;;;;;;1.38;0.98;;;;;;;3.90;100.00;149649.56;10547668;28;20094;-68
2023/10/17 03:47:37;;;;;;;1.92;1.75;;;;;;;4.51;100.00;149803.69;10546841;28;20044;-68
2023/10/17 03:52:40;;;;;;;1.75;1.40;;;;;;;4.38;100.00;149770.28;10546534;28;20052;-68
2023/10/17 03:57:52;;;;;;;1.17;1.05;;;;;;;4.39;100.00;149772.88;10544723;28;20488;-68
2023/10/17 04:02:54;;;;;;;1.88;1.48;;;;;;;4.01;100.00;149677.78;10544754;28;20064;-68
2023/10/17 04:07:57;;;;;;;2.13;1.27;;;;;;;3.96;100.00;149664.97;10545447;28;20059;-68
2023/10/17 04:13:34;;;;;;;2.65;1.77;;;;;;;4.06;100.00;149689.34;10544956;28;20051;-67
2023/10/17 04:18:22;;;;;;;2.72;1.67;;;;;;;3.84;100.00;149634.13;10544035;28;20415;-68
2023/10/17 04:23:27;;;;;;;1.98;1.40;;;;;;;3.70;100.00;149599.44;10545028;28;20066;-67
2023/10/17 04:28:29;;;;;;;2.13;1.40;;;;;;;3.70;100.00;149598.19;10545675;28;20445;-67
2023/10/17 04:33:31;;;;;;;2.92;1.90;;;;;;;3.73;100.00;149607.16;10546455;28;20052;-69
2023/10/17 04:38:36;;;;;;;4.25;2.05;;;;;;;3.90;100.00;149648.28;10543310;28;20036;-68
2023/10/17 04:43:45;;;;;;;2.70;1.80;;;;;;;4.40;100.00;149774.16;10543070;28;20047;-68
2023/10/17 04:48:47;;;;;;;2.53;2.08;;;;;;;4.18;100.00;149718.91;10543664;28;20093;-68
2023/10/17 04:53:49;;;;;;;2.33;1.92;;;;;;;4.19;100.00;149722.75;10544778;28;20040;-68
2023/10/17 04:58:53;;;;;;;2.40;2.03;;;;;;;4.13;100.00;149707.34;10544217;28;20039;-68
2023/10/17 05:03:55;;;;;;;3.83;2.03;;;;;;;4.12;100.00;149704.78;10541661;28;20434;-69
2023/10/17 06:18:17;;;;;;;2.47;1.40;;;;;;;4.96;100.00;149915.53;10553000;28;20040;-68
2023/10/17 06:24:05;;;;;;;4.47;2.35;;;;;;;4.98;100.00;149921.94;10543410;28;20051;-68
2023/10/17 06:28:46;;;;;;;4.30;2.08;;;;;;;5.03;100.00;149933.53;10541555;28;20032;-69
2023/10/17 06:33:48;;;;;;;5.68;2.53;;;;;;;5.09;100.00;149947.66;10522639;28;20483;-68
2023/10/17 06:38:51;;;;;;;4.00;2.13;;;;;;;5.18;100.00;149970.78;10547249;28;20044;-69
2023/10/17 06:43:54;;;;;;;3.30;2.65;;;;;;;5.31;100.00;150004.22;10549549;28;20047;-68
2023/10/17 06:49:07;;;;;;;3.67;2.40;;;;;;;5.57;100.00;150069.81;10530851;28;20115;-68
2023/10/17 06:54:13;;;;;;;3.60;2.47;;;;;;;5.74;100.00;150113.53;10531804;28;20101;-68
2023/10/17 06:59:25;;;;;;;5.97;3.33;;;;;;;6.00;100.00;150179.22;10548144;28;20043;-67
2023/10/17 07:04:29;;;;;;;3.05;2.40;;;;;;;6.10;100.00;150202.34;10548400;28;20056;-68
2023/10/17 07:09:38;;;;;;;4.43;2.60;;;;;;;6.00;100.00;150179.22;10547930;28;20040;-69
2023/10/17 07:14:40;;;;;;;4.30;2.67;;;;;;;6.02;100.00;150183.03;10548599;28;20048;-68
2023/10/17 07:19:46;;;;;;;3.33;2.05;;;;;;;6.41;100.00;150282.13;10529800;28;20110;-68
2023/10/17 07:24:50;;;;;;;4.18;2.85;;;;;;;6.57;100.00;150323.34;10547879;28;20393;-68
2023/10/17 07:30:10;;;;;;;4.30;3.25;;;;;;;6.94;100.00;150414.72;10548678;28;20043;-67
2023/10/17 07:35:23;;;;;;;5.57;3.28;;;;;;;7.23;96.75;150488.16;10547099;28;20111;-68
2023/10/17 07:45:41;;;;;;;4.32;2.47;;;;;;;7.50;91.70;150556.41;10546482;28;20040;-67
2023/10/17 07:50:43;;;;;;;3.85;2.33;;;;;;;7.27;96.24;150498.47;10546396;28;20127;-68
2023/10/17 07:55:49;;;;;;;3.47;2.45;;;;;;;7.35;95.94;150519.06;10544222;28;20071;-67
2023/10/17 08:00:51;;;;;;;3.40;2.40;;;;;;;7.75;92.13;150619.53;10534455;28;20036;-68
2023/10/17 08:06:05;;;;;;;2.85;2.10;;;;;;;7.62;94.80;150586.06;10545985;28;20047;-68
2023/10/17 08:11:26;;;;;;;2.58;1.60;;;;;;;8.03;88.79;150691.69;10493013;28;20040;-67
2023/10/17 08:16:32;;;;;;;4.18;1.80;;;;;;;7.88;89.86;150653.03;10513450;28;20050;-67
2023/10/17 08:21:35;;;;;;;1.70;1.60;;;;;;;7.93;88.33;150664.63;10530747;28;20090;-68
2023/10/17 08:26:40;;;;;;;3.25;1.63;;;;;;;8.08;87.85;150703.28;10546153;28;20458;-68
2023/10/17 08:31:45;;;;;;;3.40;1.83;;;;;;;8.31;88.48;150761.25;10528023;28;20048;-68
2023/10/17 08:36:47;;;;;;;1.85;1.48;;;;;;;8.74;80.82;150870.91;10526781;28;20149;-68
2023/10/17 08:41:50;;;;;;;2.10;1.70;;;;;;;8.76;82.91;150874.75;10543934;28;20040;-67
2023/10/17 08:46:54;;;;;;;5.55;2.08;;;;;;;9.20;79.50;150986.94;10525759;28;20044;-68
2023/10/17 08:51:56;;;;;;;2.83;2.38;;;;;;;8.91;80.26;150913.47;10525587;28;20052;-68
2023/10/17 08:57:03;;;;;;;2.97;2.38;;;;;;;8.54;82.51;150820.66;10544285;28;20330;-67
2023/10/17 09:07:31;;;;;;;2.55;1.88;;;;;;;8.91;81.19;150913.47;10544366;28;20055;-69
2023/10/17 09:12:42;;;;;;;2.47;1.70;;;;;;;9.20;76.03;150986.94;10524943;28;20072;-68
2023/10/17 09:17:59;;;;;;;3.15;2.13;;;;;;;8.77;78.31;150878.66;10544750;28;20044;-67
2023/10/17 09:23:01;;;;;;;2.25;1.90;;;;;;;9.17;78.69;150977.94;10512021;28;20089;-67
2023/10/17 09:28:04;;;;;;;2.05;1.95;;;;;;;9.01;78.91;150939.25;10488427;28;20045;-68
2023/10/17 09:33:07;;;;;;;3.15;1.92;;;;;;;8.91;80.83;150912.19;10543131;28;20040;-67
2023/10/17 09:38:11;;;;;;;1.80;1.40;;;;;;;9.28;80.72;151006.31;10511247;28;20040;-67
2023/10/17 09:43:14;;;;;;;1.50;1.42;;;;;;;9.90;75.21;151162.41;10500418;28;20037;-67
2023/10/17 09:48:21;;;;;;;2.88;1.60;;;;;;;9.57;76.52;151081.13;10499746;28;20048;-67
2023/10/17 09:53:30;;;;;;;2.35;1.85;;;;;;;9.71;74.40;151114.69;10483077;28;20040;-68
2023/10/17 09:58:36;;;;;;;3.00;1.90;;;;;;;9.99;74.37;151185.66;10523456;28;20093;-68
2023/10/17 10:03:40;;;;;;;3.00;2.00;;;;;;;9.84;74.37;151149.53;10514765;28;20578;-68
2023/10/17 10:08:42;;;;;;;1.60;1.50;;;;;;;10.67;71.10;151358.72;10498811;28;20070;-68
2023/10/17 10:14:02;;;;;;;2.13;1.67;;;;;;;10.98;69.81;151437.47;10492338;28;20059;-68
2023/10/17 10:19:06;;;;;;;2.55;1.83;;;;;;;11.33;65.33;151526.63;10495079;28;20092;-67
2023/10/17 10:24:17;;;;;;;1.85;1.38;;;;;;;11.82;66.60;151649.31;10513518;28;20113;-68
2023/10/17 10:29:24;;;;;;;2.28;1.65;;;;;;;11.98;63.47;151689.47;10513890;28;20040;-66
2023/10/17 10:34:26;;;;;;;1.25;1.15;;;;;;;12.44;63.20;151805.78;10513167;28;20496;-68
2023/10/17 10:39:28;;;;;;;2.00;1.42;;;;;;;12.87;60.46;151915.72;10512184;28;20484;-67
2023/10/17 10:44:39;;;;;;;2.08;1.88;;;;;;;13.39;58.91;152047.72;10513640;28;20496;-66
2023/10/17 10:49:41;;;;;;;1.48;1.20;;;;;;;13.69;56.57;152124.09;10493877;28;20048;-67
2023/10/17 10:54:54;;;;;;;1.67;1.10;;;;;;;13.41;56.20;152052.88;10511866;28;20044;-68
2023/10/17 10:59:57;;;;;;;1.40;1.17;;;;;;;13.55;56.32;152089.16;10512185;28;20074;-68
2023/10/17 11:04:59;;;;;;;2.13;1.00;;;;;;;13.87;54.61;152169.38;10512793;28;20048;-68
2023/10/17 11:10:11;;;;;;;1.15;0.80;;;;;;;14.30;54.06;152278.13;10511904;28;20044;-68
2023/10/17 11:15:18;;;;;;;1.45;0.70;;;;;;;14.75;52.88;152392.13;10493290;28;20119;-67
2023/10/17 11:20:20;;;;;;;1.05;0.90;;;;;;;14.40;49.88;152304.03;10512014;28;20378;-66
2023/10/17 11:25:27;;;;;;;1.10;1.00;;;;;;;14.25;53.37;152265.16;10505066;28;20044;-67
2023/10/17 11:30:36;;;;;;;1.20;0.85;;;;;;;14.64;48.71;152366.19;10505536;28;20044;-66
2023/10/17 11:35:45;;;;;;;1.20;0.80;;;;;;;14.01;50.46;152204.31;10504355;28;20411;-67
2023/10/17 11:40:48;;;;;;;1.33;0.70;;;;;;;13.48;53.06;152071.03;10504988;28;20551;-68
2023/10/17 11:45:50;;;;;;;2.33;0.90;;;;;;;13.44;50.59;152060.66;10504535;28;20451;-68
2023/10/17 11:51:17;;;;;;;0.80;0.40;;;;;;;13.27;49.65;152016.66;10504699;28;20040;-68
2023/10/17 11:56:20;;;;;;;0.57;0.55;;;;;;;13.14;49.92;151984.28;10504363;28;20132;-67
2023/10/17 12:01:22;;;;;;;0.55;0.47;;;;;;;12.84;51.10;151909.28;10504630;28;20481;-67
2023/10/17 12:06:28;;;;;;;1.33;0.50;;;;;;;12.64;48.64;151857.53;10504133;28;20094;-68
2023/10/17 12:11:31;;;;;;;0.90;0.50;;;;;;;12.51;49.75;151823.91;10505715;28;20037;-67
2023/10/17 12:16:34;;;;;;;0.75;0.70;;;;;;;12.63;50.86;151856.25;10485244;28;20086;-67
2023/10/17 12:21:39;;;;;;;0.50;0.20;;;;;;;12.32;48.95;151776.09;10504050;28;20045;-68
2023/10/17 12:26:42;;;;;;;0.47;0.47;;;;;;;12.28;53.52;151767.03;10503987;28;20052;-68
2023/10/17 12:31:44;;;;;;;0.38;0.30;;;;;;;12.10;50.10;151720.50;10503582;28;20041;-67
2023/10/17 12:36:46;;;;;;;0.98;0.40;;;;;;;12.30;49.95;151770.88;10502403;28;20536;-66
2023/10/17 12:41:49;;;;;;;0.50;0.40;;;;;;;12.46;48.90;151811.00;10502703;28;20044;-68
2023/10/17 12:46:50;;;;;;;0.95;0.55;;;;;;;12.37;51.18;151790.28;10484272;28;20523;-68
2023/10/17 12:51:53;;;;;;;0.65;0.55;;;;;;;12.57;49.59;151840.75;10501874;28;20400;-67
2023/10/17 12:56:55;;;;;;;1.48;0.77;;;;;;;12.22;51.47;151751.53;10501412;28;20120;-67
2023/10/17 13:01:57;;;;;;;1.35;0.60;;;;;;;12.69;50.08;151869.16;10501576;28;20041;-67
2023/10/17 13:07:00;;;;;;;0.60;0.50;;;;;;;12.53;51.44;151830.41;10500852;28;20115;-68
2023/10/17 13:12:02;;;;;;;0.88;0.70;;;;;;;12.52;51.02;151827.78;10500426;28;20044;-68
2023/10/17 13:17:09;;;;;;;0.77;0.60;;;;;;;12.38;49.65;151792.88;10500755;28;20036;-67
2023/10/17 13:22:16;;;;;;;0.83;0.70;;;;;;;12.26;50.62;151760.53;10482994;28;20473;-67
2023/10/17 13:27:18;;;;;;;1.27;0.70;;;;;;;12.09;49.47;151719.22;10481981;28;20064;-68
2023/10/17 13:32:23;;;;;;;0.65;0.43;;;;;;;12.13;49.08;151728.25;10500774;28;20033;-67
2023/10/17 13:37:28;;;;;;;0.60;0.55;;;;;;;11.98;50.79;151689.47;10500519;28;20504;-68
2023/10/17 13:42:32;;;;;;;1.35;0.73;;;;;;;12.16;51.46;151734.69;10500084;28;20041;-67
2023/10/17 13:47:34;;;;;;;1.02;0.77;;;;;;;12.04;51.89;151704.94;10498786;28;20048;-67
2023/10/17 13:52:35;;;;;;;0.93;0.70;;;;;;;11.94;54.31;151680.41;10499656;28;20050;-68
2023/10/17 13:57:38;;;;;;;1.25;0.60;;;;;;;11.97;53.31;151688.16;10500721;28;20397;-67
2023/10/17 14:02:39;;;;;;;0.98;0.60;;;;;;;12.08;51.57;151715.28;10482115;28;20504;-67
2023/10/17 14:07:42;;;;;;;1.08;0.50;;;;;;;11.84;51.87;151655.84;10500501;28;20055;-67
2023/10/17 14:12:46;;;;;;;0.75;0.70;;;;;;;11.72;52.26;151623.50;10500101;28;20087;-68
2023/10/17 14:17:53;;;;;;;1.30;0.80;;;;;;;11.74;52.58;151629.97;10499885;28;20041;-67
2023/10/17 14:23:13;;;;;;;1.83;0.88;;;;;;;11.61;53.47;151597.66;10481077;28;20064;-67
2023/10/17 14:28:15;;;;;;;1.55;0.80;;;;;;;11.52;54.66;151574.41;10498725;28;20455;-67
2023/10/17 14:33:17;;;;;;;2.00;0.70;;;;;;;11.52;55.25;151574.41;10498932;28;20040;-67
2023/10/17 14:38:19;;;;;;;0.85;0.85;;;;;;;11.68;54.20;151614.44;10498504;28;20041;-68
2023/10/17 14:43:21;;;;;;;0.65;0.60;;;;;;;11.54;55.13;151579.56;10482842;28;20393;-68
2023/10/17 14:48:24;;;;;;;1.60;0.75;;;;;;;11.57;52.64;151586.03;10500440;28;20492;-68
2023/10/17 14:53:26;;;;;;;0.80;0.65;;;;;;;11.62;53.88;151600.22;10499039;28;20547;-68
2023/10/17 14:58:49;;;;;;;1.08;0.75;;;;;;;11.42;53.46;151548.59;10501563;28;20044;-68
2023/10/17 15:03:54;;;;;;;1.75;1.10;;;;;;;11.36;52.78;151533.03;10507866;28;20079;-68
2023/10/17 15:08:56;;;;;;;0.88;0.40;;;;;;;11.44;52.14;151552.44;10488779;28;20127;-68
2023/10/17 15:14:00;;;;;;;0.60;0.60;;;;;;;11.34;51.74;151529.19;10488298;28;20037;-68
2023/10/17 15:19:01;;;;;;;1.10;0.73;;;;;;;11.40;51.88;151543.38;10488037;28;20140;-68
2023/10/17 15:24:08;;;;;;;0.55;0.55;;;;;;;11.41;51.42;151544.69;10505670;28;20079;-67
2023/10/17 15:29:12;;;;;;;0.90;0.68;;;;;;;11.27;51.78;151509.81;10487634;28;20523;-68
2023/10/17 15:34:15;;;;;;;0.95;0.50;;;;;;;11.06;51.89;151458.09;10504418;28;20071;-68
2023/10/17 15:39:24;;;;;;;0.55;0.50;;;;;;;10.99;52.51;151438.78;10505130;28;20068;-68
2023/10/17 15:44:28;;;;;;;0.45;0.45;;;;;;;10.88;52.70;151410.34;10488449;28;20174;-68
2023/10/17 15:49:30;;;;;;;1.55;0.80;;;;;;;10.70;53.38;151365.13;10506138;28;20040;-68
2023/10/17 15:54:32;;;;;;;0.70;0.60;;;;;;;10.34;56.55;151276.06;10504370;28;20044;-68
2023/10/17 15:59:34;;;;;;;0.80;0.77;;;;;;;10.21;56.33;151242.44;10486731;28;20123;-68
2023/10/17 16:04:37;;;;;;;1.13;0.73;;;;;;;9.93;57.79;151171.47;10505206;28;20504;-68
2023/10/17 16:09:39;;;;;;;2.00;0.80;;;;;;;9.54;61.06;151073.38;10471114;28;20450;-67
2023/10/17 16:14:41;;;;;;;1.35;1.00;;;;;;;9.33;62.29;151020.47;10504259;28;20094;-68
2023/10/17 16:19:43;;;;;;;1.10;0.98;;;;;;;9.32;64.33;151017.91;10487095;28;20045;-69
2023/10/17 16:24:45;;;;;;;0.88;0.68;;;;;;;9.19;66.69;150984.38;10535642;28;20130;-68
2023/10/17 16:29:47;;;;;;;2.92;1.30;;;;;;;9.27;67.47;151003.75;10568570;28;20047;-69
2023/10/17 16:34:49;;;;;;;2.58;2.20;;;;;;;9.21;67.56;150988.22;10569697;28;20048;-68
2023/10/17 16:39:51;;;;;;;2.17;1.33;;;;;;;8.94;69.05;150919.88;10568702;28;20047;-68
2023/10/17 16:44:53;;;;;;;1.73;1.00;;;;;;;8.70;69.92;150860.59;10569174;28;20047;-68
2023/10/17 16:49:55;;;;;;;1.50;1.15;;;;;;;8.40;72.37;150783.22;10568644;28;20050;-67
2023/10/17 16:54:58;;;;;;;1.52;1.13;;;;;;;8.17;73.14;150725.19;10587584;28;20055;-67
2023/10/17 17:00:00;;;;;;;2.15;1.67;;;;;;;8.28;74.00;150754.84;10586089;28;20032;-68
2023/10/17 17:05:09;;;;;;;2.25;1.90;;;;;;;8.07;74.56;150702.00;10585557;28;20556;-67
2023/10/17 17:10:14;;;;;;;3.65;2.15;;;;;;;8.04;75.78;150692.97;10568087;28;20093;-68
2023/10/17 17:15:16;;;;;;;5.10;3.15;;;;;;;7.90;76.25;150658.19;10588219;28;20044;-68
2023/10/17 17:20:18;;;;;;;4.53;3.30;;;;;;;7.60;78.59;150582.16;10569423;28;20039;-69
2023/10/17 17:25:20;;;;;;;6.40;4.82;;;;;;;7.58;78.58;150578.31;10526632;28;20131;-69
2023/10/17 17:30:23;;;;;;;7.32;4.55;;;;;;;7.47;79.23;150548.66;10527013;28;20051;-70
2023/10/17 17:35:25;;;;;;;5.15;4.00;;;;;;;7.30;79.70;150506.16;10546338;28;20036;-68
2023/10/17 17:40:28;;;;;;;5.57;3.80;;;;;;;7.31;79.43;150510.03;10526444;28;20060;-68
2023/10/17 17:45:31;;;;;;;5.28;3.95;;;;;;;7.04;81.41;150440.53;10526094;28;20078;-68
2023/10/17 17:50:33;;;;;;;4.75;3.60;;;;;;;6.86;83.35;150394.13;10544636;28;20059;-68
2023/10/17 17:55:39;;;;;;;4.70;4.15;;;;;;;6.96;82.32;150421.19;10544611;28;20036;-69
2023/10/17 18:00:41;;;;;;;4.20;3.80;;;;;;;6.79;83.48;150377.41;10529002;28;20377;-69
2023/10/17 18:05:44;;;;;;;6.90;6.30;;;;;;;6.60;84.93;150329.78;10543296;28;20123;-68
2023/10/17 18:10:49;;;;;;;7.07;6.32;;;;;;;6.37;86.42;150270.56;10545467;28;20161;-69
2023/10/17 18:15:53;;;;;;;6.13;5.10;;;;;;;6.50;85.98;150304.03;10544873;28;20105;-69
2023/10/17 18:21:06;;;;;;;5.32;4.55;;;;;;;6.19;87.28;150225.53;10546287;28;20094;-69
2023/10/17 18:26:17;;;;;;;4.95;4.45;;;;;;;5.97;89.71;150170.19;10524959;28;20094;-69
2023/10/17 18:31:20;;;;;;;5.40;4.47;;;;;;;5.93;90.00;150161.22;10526479;28;20044;-69
2023/10/17 18:36:21;;;;;;;5.55;4.47;;;;;;;5.94;91.35;150163.78;10549810;28;20047;-68
2023/10/17 18:41:23;;;;;;;4.97;4.47;;;;;;;5.98;90.85;150172.78;10552230;28;20055;-69
2023/10/17 18:46:26;;;;;;;4.80;4.40;;;;;;;5.88;90.06;150148.28;10550177;28;20102;-70
2023/10/17 18:51:29;;;;;;;6.72;6.03;;;;;;;5.78;91.33;150123.84;10516341;28;20044;-69
2023/10/17 18:56:33;;;;;;;6.90;5.10;;;;;;;5.82;89.93;150134.13;10551032;28;20416;-69
2023/10/17 19:01:34;;;;;;;5.47;4.70;;;;;;;5.52;92.14;150058.22;10550792;28;20119;-69
2023/10/17 19:06:37;;;;;;;7.43;4.60;;;;;;;5.25;94.09;149990.09;10551755;28;20402;-69
2023/10/17 19:11:40;;;;;;;4.43;4.03;;;;;;;5.17;94.26;149968.22;10550096;28;20040;-69
2023/10/17 19:16:42;;;;;;;4.82;3.88;;;;;;;5.19;94.33;149974.66;10550018;28;20040;-70
2023/10/17 19:21:43;;;;;;;4.15;3.75;;;;;;;5.06;94.25;149942.53;10550629;28;20121;-70
2023/10/17 19:26:45;;;;;;;4.88;4.35;;;;;;;4.95;95.03;149912.94;10553274;28;20048;-68
2023/10/17 19:31:49;;;;;;;6.72;3.80;;;;;;;4.92;95.20;149906.53;10531371;28;20078;-69
2023/10/17 19:36:52;;;;;;;4.10;3.70;;;;;;;4.87;95.32;149892.38;10514683;28;20048;-67
2023/10/17 19:41:53;;;;;;;4.32;3.45;;;;;;;4.90;94.51;149901.38;10549157;28;20044;-68
2023/10/17 19:46:56;;;;;;;4.38;3.33;;;;;;;4.78;94.33;149871.84;10550214;28;20443;-69
2023/10/17 19:51:58;;;;;;;4.18;3.65;;;;;;;4.76;94.44;149865.41;10530183;28;20066;-68
2023/10/17 19:57:00;;;;;;;3.75;3.25;;;;;;;4.88;92.40;149896.25;10529769;28;20134;-69
2023/10/17 20:02:02;;;;;;;4.20;3.88;;;;;;;4.72;93.13;149855.09;10548216;28;20488;-69
2023/10/17 20:07:04;;;;;;;4.25;3.63;;;;;;;4.65;93.21;149838.44;10525785;28;20107;-68
2023/10/17 20:12:07;;;;;;;3.60;3.20;;;;;;;4.75;91.82;149864.13;10530196;28;20044;-69
2023/10/17 20:17:11;;;;;;;4.15;3.50;;;;;;;4.67;92.22;149842.25;10547874;28;20044;-69
2023/10/17 20:22:14;;;;;;;5.97;4.82;;;;;;;4.41;93.83;149778.00;10530024;28;20043;-69
2023/10/17 20:27:16;;;;;;;4.35;3.78;;;;;;;4.22;95.42;149729.19;10529506;28;20423;-69
2023/10/17 20:32:21;;;;;;;4.65;3.75;;;;;;;4.06;97.56;149689.34;10531688;28;20117;-68
2023/10/17 20:37:23;;;;;;;4.13;3.53;;;;;;;4.08;97.18;149694.50;10529214;28;20048;-68
2023/10/17 20:42:25;;;;;;;4.65;4.03;;;;;;;4.06;97.22;149689.34;10547916;28;20043;-69
2023/10/17 20:47:27;;;;;;;5.22;4.13;;;;;;;3.91;98.03;149652.13;10547975;28;20047;-68
2023/10/17 20:52:30;;;;;;;4.05;3.65;;;;;;;4.16;97.03;149713.75;10550370;28;20043;-69
2023/10/17 20:57:33;;;;;;;5.03;4.35;;;;;;;4.31;94.80;149752.31;10547087;28;20036;-69
2023/10/17 21:02:35;;;;;;;4.60;4.10;;;;;;;4.25;95.04;149738.19;10528315;28;20036;-69
2023/10/17 21:07:37;;;;;;;4.70;4.30;;;;;;;4.04;96.17;149685.50;10545339;28;20089;-69
2023/10/17 21:12:39;;;;;;;6.10;5.40;;;;;;;3.82;97.65;149627.72;10548265;28;20115;-68
2023/10/17 21:17:41;;;;;;;5.30;4.80;;;;;;;4.04;96.35;149685.50;10544509;28;20044;-68
2023/10/17 21:22:43;;;;;;;5.50;4.72;;;;;;;4.01;95.21;149677.78;10525651;28;20036;-68
2023/10/17 21:27:46;;;;;;;5.13;4.28;;;;;;;3.74;95.95;149609.72;10544504;28;20070;-70
2023/10/17 21:32:48;;;;;;;5.10;4.43;;;;;;;3.43;98.49;149531.41;10527626;28;20134;-70
2023/10/17 21:37:50;;;;;;;4.78;3.75;;;;;;;3.24;100.00;149482.63;10529012;28;20110;-71
2023/10/17 21:42:59;;;;;;;4.18;3.85;;;;;;;3.22;100.00;149477.47;10511933;28;20162;-71
2023/10/17 21:48:01;;;;;;;5.18;3.72;;;;;;;3.21;100.00;149474.91;10545895;28;20048;-71
2023/10/17 21:53:03;;;;;;;5.22;4.53;;;;;;;3.67;98.20;149591.72;10546316;28;20043;-72
2023/10/17 21:58:05;;;;;;;4.82;4.32;;;;;;;3.68;96.00;149593.06;10527450;28;20052;-72
2023/10/17 22:03:08;;;;;;;5.15;4.55;;;;;;;3.52;96.40;149554.50;10542087;28;20070;-72
2023/10/17 22:08:14;;;;;;;5.35;4.85;;;;;;;3.28;96.98;149494.19;10523807;28;20062;-72
2023/10/17 22:13:16;;;;;;;6.07;5.47;;;;;;;3.23;98.76;149481.34;10543449;28;20044;-71
2023/10/17 22:18:20;;;;;;;6.15;5.55;;;;;;;2.92;99.99;149401.75;10545020;28;20048;-71
2023/10/17 22:23:22;;;;;;;4.65;4.13;;;;;;;3.24;97.92;149482.63;10523819;28;20040;-71
2023/10/17 22:28:23;;;;;;;4.80;4.40;;;;;;;2.98;99.78;149417.16;10543211;28;20469;-72
2023/10/17 22:33:25;;;;;;;5.25;4.75;;;;;;;2.83;100.00;149379.94;10542378;28;20165;-72
2023/10/17 22:38:30;;;;;;;5.03;4.45;;;;;;;2.64;100.00;149332.47;10523100;28;20056;-72
2023/10/17 22:43:33;;;;;;;4.93;4.43;;;;;;;2.53;100.00;149304.25;10527901;28;20396;-76
2023/10/17 22:48:36;;;;;;;5.85;5.03;;;;;;;2.46;100.00;149286.28;10545872;28;20047;-76
2023/10/17 22:53:39;;;;;;;4.88;4.35;;;;;;;2.42;100.00;149277.28;10525646;28;20466;-76
2023/10/17 22:58:41;;;;;;;6.38;4.70;;;;;;;2.38;100.00;149267.03;10541911;28;20411;-67
2023/10/17 23:03:43;;;;;;;5.30;4.45;;;;;;;2.78;100.00;149368.38;10524655;28;20040;-68
2023/10/17 23:08:44;;;;;;;4.97;4.47;;;;;;;3.02;97.60;149427.44;10522130;28;20572;-68
2023/10/17 23:13:48;;;;;;;4.55;4.07;;;;;;;2.80;99.04;149372.25;10523451;28;20040;-68
2023/10/17 23:18:50;;;;;;;5.53;4.57;;;;;;;2.76;99.70;149362.00;10542157;28;20040;-67
2023/10/17 23:23:53;;;;;;;6.55;4.95;;;;;;;2.63;100.00;149329.91;10552421;28;20044;-69
2023/10/17 23:28:55;;;;;;;5.88;4.25;;;;;;;2.72;100.00;149351.72;10548072;28;20093;-67
2023/10/17 23:33:57;;;;;;;4.45;3.88;;;;;;;2.44;100.00;149282.44;10547489;28;20047;-68
2023/10/17 23:38:59;;;;;;;6.25;4.07;;;;;;;2.13;100.00;149204.22;10546965;28;20047;-68
2023/10/17 23:44:01;;;;;;;6.15;4.55;;;;;;;2.03;100.00;149179.81;10546085;28;20089;-68
2023/10/17 23:49:03;;;;;;;6.40;4.57;;;;;;;2.20;100.00;149222.13;10530653;28;20117;-68
2023/10/17 23:54:06;;;;;;;5.40;4.78;;;;;;;2.02;100.00;149175.97;10527625;28;20567;-69
2023/10/17 23:59:08;;;;;;;6.25;5.00;;;;;;;2.17;100.00;149213.16;10527676;28;20101;-69
